Latest Coastal Weather Observations for Cairns

IDQ60701

Issued at 7:25 pm EST Saturday 25 October 2014 (issued every 10 minutes, with the page automatically refreshed every 10 minutes)

About coastal observations | Map of coastal stations | Coastal observations for QLD | Marine services | Other Formats
Station Details ID: 031011 Name: CAIRNS AERO Lat: -16.87 Lon: 145.75 Height: 2.22 m
Data from the previous 72 hours. | See also: Recent months at Cairns
Date/Time
EST
Temp

°C
Wind Pressure Rain
since 9am
mm
Weather Cloud Vis
km
Sea
Height
m
Swell
Dir
 
Speed
knots
Gust
knots
hPa Trend Height
m
Period
s
Dir
25/07:00pm 23.3 S 6 8 1017.1 - 0.0 - Mostly clear 10 - - - -
25/06:30pm 24.2 SE 9 13 1016.7 - 0.0 - Mostly clear 10 - - - -
25/06:00pm 24.9 SE 13 17 1016.3 - 0.0 - Mostly clear 10 - - - -
25/05:30pm 26.0 SE 13 16 1016.0 - 0.0 - Mostly clear 10 - - - -
25/05:00pm 26.6 ESE 15 18 1015.8 - 0.0 - Mostly clear 10 - - - -
25/04:30pm 27.2 SE 15 18 1015.5 - 0.0 - Mostly clear 10 - - - -
25/04:00pm 28.1 SE 13 17 1015.3 - 0.0 - Mostly clear 10 - - - -
25/03:30pm 28.2 ESE 14 17 1015.3 - 0.0 - Mostly clear 10 - - - -
25/03:00pm 29.1 E 9 12 1015.3 F 0.0 Fine Mostly clear 30 - - - -
25/02:30pm 29.6 SE 12 16 1015.7 - 0.0 - Mostly clear 10 - - - -
25/02:00pm 29.0 ESE 13 16 1016.0 - 0.0 - Mostly clear 10 - - - -
25/01:30pm 28.7 ESE 12 18 1016.3 - 0.0 - Mostly clear 10 - - - -
25/01:00pm 29.0 SE 12 20 1016.6 - 0.0 - Mostly clear 10 - - - -
25/12:30pm 28.6 E 11 16 1017.2 - 0.0 - Mostly clear 10 - - - -
25/12:00pm 28.5 ESE 12 18 1017.5 - 0.0 - Mostly clear 10 - - - -
25/11:30am 28.9 ESE 14 19 1018.1 - 0.0 - Mostly clear 10 - - - -
25/11:00am 28.6 ESE 17 20 1018.6 - 0.0 - Mostly clear 10 - - - -
25/10:30am 27.4 SE 17 23 1018.5 - 0.0 - Partly cloudy 10 - - - -
25/10:00am 28.2 ESE 16 21 1018.7 - 0.0 - Partly cloudy 10 - - - -
25/09:30am 27.7 ESE 17 20 1019.0 - 0.0 - Partly cloudy 10 - - - -
25/09:00am 26.4 ESE 17 23 1019.0 S 0.2 Fine Partly cloudy 30 - - - -
25/08:30am 25.6 ESE 13 15 1019.0 - 0.2 - Partly cloudy 10 - - - -
25/08:00am 25.6 SSE 12 17 1018.9 - 0.2 - Mostly clear 10 - - - -
25/07:30am 24.1 SSE 11 17 1018.5 - 0.2 - Mostly clear 10 - - - -
25/07:00am 23.0 SSE 12 16 1018.0 - 0.2 - Mostly clear 10 - - - -
25/06:30am 22.0 SSE 9 12 1017.7 - 0.2 - Mostly clear 10 - - - -
25/06:00am 20.9 SSE 9 13 1017.4 - 0.2 - Mostly clear 10 - - - -
25/05:30am 21.2 SSE 10 15 1017.2 - 0.2 - Mostly clear 10 - - - -
25/05:00am 21.9 S 11 17 1016.9 - 0.2 - Mostly clear 10 - - - -
25/04:30am 21.7 S 11 16 1016.8 - 0.2 - Mostly clear 10 - - - -
25/04:00am 21.9 S 9 15 1016.9 - 0.2 - Mostly clear 10 - - - -
25/03:30am 21.5 S 9 13 1016.8 - 0.2 - Mostly clear 10 - - - -
25/03:00am 21.2 SSE 8 10 1016.8 - 0.2 - Mostly clear 10 - - - -
25/02:30am 21.5 S 7 10 1016.9 - 0.2 - Mostly clear 10 - - - -
25/02:00am 21.7 S 7 11 1017.0 - 0.2 - Mostly clear 10 - - - -
25/01:30am 21.6 S 8 11 1017.4 - 0.2 - - 10 - - - -
25/01:00am 21.9 SSE 8 11 1017.7 - 0.2 - Mostly clear 10 - - - -
25/12:30am 22.1 SSE 9 10 1018.1 - 0.2 - Mostly clear 10 - - - -
25/12:00am 21.6 SSE 9 11 1018.3 - 0.2 - Mostly clear 10 - - - -
 
Date/Time
EST
Temp

°C
Wind Pressure Rain
since 9am
mm
Weather Cloud Vis
km
Sea
Height
m
Swell
Dir
 
Speed
knots
Gust
knots
hPa Trend Height
m
Period
s
Dir
24/11:30pm 21.7 SSE 9 14 1018.6 - 0.2 - Mostly clear 10 - - - -
24/11:00pm 21.8 SSE 10 14 1018.8 - 0.2 - Mostly clear 10 - - - -
24/10:30pm 22.5 S 9 15 1018.9 - 0.2 - Mostly clear 10 - - - -
24/10:00pm 22.5 SSE 10 15 1019.0 - 0.2 - Mostly clear 10 - - - -
24/09:30pm 22.9 SSE 12 17 1018.6 - 0.2 - - 10 - - - -
24/09:00pm 22.9 SSE 11 15 1018.2 - 0.2 - Mostly clear 10 - - - -
24/08:30pm 22.9 SSE 9 15 1018.1 - 0.2 - Mostly clear 10 - - - -
24/08:00pm 23.1 SSE 9 14 1017.9 - 0.2 - Mostly clear 10 - - - -
24/07:30pm 23.4 SSE 11 17 1017.5 - 0.2 - Mostly clear 10 - - - -
24/07:00pm 23.7 SE 15 19 1017.3 - 0.2 - Mostly clear 10 - - - -
24/06:30pm 24.1 SE 15 19 1017.1 - 0.2 - Mostly clear 10 - - - -
24/06:00pm 24.9 ESE 14 18 1016.6 - 0.2 - Mostly clear 10 - - - -
24/05:30pm 25.7 ESE 15 20 1016.5 - 0.2 - Mostly clear 10 - - - -
24/05:00pm 26.7 ESE 17 24 1016.1 - 0.2 - Mostly clear 10 - - - -
24/04:30pm 27.0 ESE 18 27 1015.8 - 0.2 - Mostly clear 10 - - - -
24/04:00pm 27.4 ESE 19 24 1015.7 - 0.2 - Mostly clear 10 - - - -
24/03:30pm 28.3 ESE 19 23 1015.8 - 0.2 - Mostly clear 10 - - - -
24/03:00pm 27.6 ESE 18 24 1015.8 R 0.2 Fine Mostly clear 30 - - - -
24/02:30pm 27.9 ESE 17 21 1016.0 - 0.2 - Mostly clear 10 - - - -
24/02:00pm 27.9 ESE 18 23 1016.2 - 0.2 - Mostly clear 10 - - - -
24/01:30pm 28.0 ESE 17 21 1016.6 - 0.2 - Mostly clear 10 - - - -
24/01:00pm 27.8 ESE 17 21 1017.0 - 0.2 - Mostly clear 10 - - - -
24/12:30pm 28.6 ESE 17 23 1017.4 - 0.2 - Mostly clear 10 - - - -
24/12:00pm 28.3 ESE 17 23 1017.8 - 0.2 - Mostly clear 10 - - - -
24/11:30am 28.5 ESE 18 23 1018.0 - 0.2 - Mostly clear 10 - - - -
24/11:00am 28.1 SE 18 23 1018.4 - 0.2 - Mostly clear 10 - - - -
24/10:30am 27.7 ESE 17 21 1018.6 - 0.2 - Partly cloudy 10 - - - -
24/10:00am 27.3 ESE 15 19 1018.9 - 0.0 - Partly cloudy 10 - - - -
24/09:30am 26.6 ESE 17 21 1019.0 - 0.0 - Partly cloudy 10 - - - -
24/09:00am 24.9 SE 11 14 1019.0 F 4.6 Distant precip. Mostly cloudy 30 - - - -
24/08:30am 24.6 SSE 9 13 1018.9 - 4.6 - Partly cloudy 10 - - - -
24/08:00am 22.6 SSE 8 11 1018.8 - 4.6 - Partly cloudy 10 - - - -
24/07:30am 21.8 SE 8 11 1018.6 - 4.2 Showers Partly cloudy 10 - - - -
24/07:00am 21.9 S 8 12 1018.1 - 4.2 - Mostly clear 10 - - - -
24/06:30am 21.9 S 9 13 1017.8 - 4.2 - - 10 - - - -
24/06:00am 21.4 SSE 8 10 1017.5 - 4.2 - Cloudy 10 - - - -
24/05:30am 21.6 S 8 13 1017.3 - 4.2 - Partly cloudy 10 - - - -
24/05:00am 21.8 SSE 8 12 1016.9 - 4.2 - Partly cloudy 10 - - - -
24/04:30am 21.5 SE 7 11 1016.7 - 4.2 - Mostly clear 10 - - - -
24/04:00am 21.3 SSE 7 10 1016.5 - 4.2 - Mostly clear 10 - - - -
24/03:30am 20.7 SSE 6 8 1016.6 - 4.2 - Mostly clear 10 - - - -
24/03:00am 20.4 S 7 8 1016.6 - 4.2 - Cloudy 10 - - - -
24/02:43am 21.0 SE 10 14 1016.9 - 1.6 Showers Mostly clear 6 - - - -
24/02:30am 21.8 S 9 14 1016.6 - 0.4 Showers Partly cloudy 10 - - - -
24/02:00am 21.9 SSE 7 12 1016.9 - 0.4 - Mostly clear 10 - - - -
24/01:30am 21.8 SSE 9 15 1017.2 - 0.4 - Mostly clear 10 - - - -
24/01:00am 21.7 SSE 8 11 1017.6 - 0.4 - Mostly clear 10 - - - -
24/12:30am 21.9 S 10 15 1018.0 - 0.4 - Mostly clear 10 - - - -
24/12:00am 22.0 S 9 15 1018.2 - 0.4 - Mostly cloudy 10 - - - -
 
Date/Time
EST
Temp

°C
Wind Pressure Rain
since 9am
mm
Weather Cloud Vis
km
Sea
Height
m
Swell
Dir
 
Speed
knots
Gust
knots
hPa Trend Height
m
Period
s
Dir
23/11:30pm 22.0 S 8 12 1018.6 - 0.4 - Mostly clear 10 - - - -
23/11:00pm 21.9 S 7 14 1018.8 - 0.4 - Mostly clear 10 - - - -
23/10:30pm 22.2 S 8 13 1018.8 - 0.4 - Mostly clear 10 - - - -
23/10:00pm 22.1 S 8 14 1018.9 - 0.4 - Mostly clear 10 - - - -
23/09:30pm 22.2 S 8 12 1018.8 - 0.4 - Mostly clear 10 - - - -
23/09:00pm 22.3 S 8 14 1018.4 - 0.4 - Mostly clear 10 - - - -
23/08:30pm 21.9 S 7 16 1018.3 - 0.4 - Mostly clear 10 - - - -
23/08:00pm 21.5 SSE 8 13 1017.9 - 0.4 - Mostly clear 10 - - - -
23/07:30pm 24.1 SSE 11 15 1017.6 - 0.2 Showers Mostly clear 10 - - - -
23/07:00pm 24.0 SSE 13 18 1017.2 - 0.2 - Mostly clear 10 - - - -
23/06:30pm 24.2 SE 14 18 1016.8 - 0.2 - Mostly clear 10 - - - -
23/06:00pm 24.6 SE 16 20 1016.4 - 0.2 - Mostly clear 10 - - - -
23/05:30pm 25.6 SE 17 20 1016.0 - 0.2 - Mostly clear 10 - - - -
23/05:00pm 26.3 SE 18 23 1015.5 - 0.2 - Mostly clear 10 - - - -
23/04:30pm 27.2 ESE 19 22 1015.0 - 0.2 - Mostly clear 10 - - - -
23/04:00pm 27.2 ESE 18 23 1014.9 - 0.2 - Mostly clear 10 - - - -
23/03:30pm 27.6 ESE 19 25 1014.9 - 0.2 - Mostly clear 10 - - - -
23/03:00pm 28.0 ESE 21 27 1015.0 R 0.2 Fine Mostly cloudy 25 - - - -
23/02:30pm 27.4 ESE 23 29 1015.1 - 0.2 - Mostly clear 10 - - - -
23/02:00pm 29.3 ESE 21 27 1015.2 - 0.2 - Mostly clear 10 - - - -
23/01:30pm 28.4 ESE 20 27 1015.5 - 0.2 - Mostly clear 10 - - - -
23/01:00pm 29.4 ESE 22 27 1015.7 - 0.2 - Mostly clear 10 - - - -
23/12:30pm 29.4 ESE 22 29 1016.1 - 0.2 - Mostly clear 10 - - - -
23/12:00pm 29.2 ESE 22 28 1016.5 F 0.2 Fine Mostly clear 25 - - - -
23/11:30am 29.5 ESE 21 29 1017.1 - 0.2 - Mostly clear 10 - - - -
23/11:00am 28.5 ESE 21 27 1017.5 - 0.2 - Mostly clear 10 - - - -
23/10:30am 28.5 SE 21 26 1017.7 - 0.2 - Mostly clear 10 - - - -
23/10:00am 28.4 SE 19 25 1018.0 - 0.2 - Mostly clear 10 - - - -
23/09:30am 28.0 SE 19 26 1018.2 - 0.2 - Mostly clear 10 - - - -
23/09:00am 27.0 SSE 16 21 1018.2 F 0.0 Distant precip. Mostly clear 20 - - - -
23/08:30am 26.4 SSE 15 20 1018.3 - 0.0 - Mostly clear 10 - - - -
23/08:00am 24.5 SSE 13 18 1018.2 - 0.0 - Mostly clear 10 - - - -
23/07:30am 23.0 SSE 12 18 1018.0 - 0.0 - Mostly clear 10 - - - -
23/07:00am 22.7 SSE 9 14 1017.8 - 0.0 - Mostly clear 10 - - - -
23/06:30am 22.0 S 7 12 1017.4 - 0.0 - Mostly clear 10 - - - -
23/06:00am 21.1 S 7 10 1017.1 F 0.0 Distant precip. Mostly clear 20 - - - -
23/05:30am 20.8 SSE 8 12 1017.0 - 0.0 - Mostly clear 10 - - - -
23/05:00am 21.4 SSE 9 13 1016.7 - 0.0 Showers Mostly clear 9 - - - -
23/04:30am 21.5 SSE 8 12 1016.4 - 0.0 - Mostly clear 10 - - - -
23/04:00am 21.6 SSE 9 14 1016.4 - 0.0 - Mostly clear 10 - - - -
23/03:30am 21.8 S 9 14 1016.4 - 0.0 - Mostly clear 10 - - - -
23/03:00am 21.9 SSE 8 12 1016.5 - 0.0 - Mostly clear 10 - - - -
23/02:30am 21.6 SSE 8 12 1016.9 - 0.0 - Mostly clear 10 - - - -
23/02:00am 21.7 SSE 8 14 1017.1 - 0.0 - Mostly clear 10 - - - -
23/01:30am 21.8 SSE 10 15 1017.4 - 0.0 - Mostly clear 10 - - - -
23/01:00am 21.9 S 9 14 1017.8 - 0.0 - Mostly clear 10 - - - -
23/12:30am 21.9 S 7 11 1018.3 - 0.0 - Mostly clear 10 - - - -
23/12:00am 22.1 SSE 9 14 1018.6 - 0.0 - Cloudy 10 - - - -
 
Date/Time
EST
Temp

°C
Wind Pressure Rain
since 9am
mm
Weather Cloud Vis
km
Sea
Height
m
Swell
Dir
 
Speed
knots
Gust
knots
hPa Trend Height
m
Period
s
Dir
22/11:30pm 22.9 SSE 8 9 1018.9 - 0.0 - Mostly clear 10 - - - -
22/11:00pm 23.5 SE 15 18 1019.2 - 0.0 - Mostly clear 10 - - - -
22/10:30pm 22.8 SSE 9 13 1019.3 - 0.0 - Mostly clear 10 - - - -
22/10:00pm 22.9 SSE 8 13 1019.3 - 0.0 - Mostly clear 10 - - - -
22/09:30pm 23.3 SSE 11 15 1019.0 - 0.0 - Mostly clear 10 - - - -
22/09:00pm 23.4 SSE 10 16 1018.6 - 0.0 - Mostly cloudy 10 - - - -
22/08:30pm 23.4 SSE 11 15 1018.5 - 0.0 - Mostly clear 10 - - - -
22/08:00pm 23.3 SSE 11 15 1018.3 - 0.0 - Mostly clear 10 - - - -
22/07:30pm 23.6 SE 15 19 1018.0 - 0.0 - Mostly clear 10 - - - -

Other Formats:

Comma delimited format used in spreadsheet applications
http://www.bom.gov.au/fwo/IDQ60701/IDQ60701.94287.axf

JavaScript Object Notation format (JSON) in row-major order
http://www.bom.gov.au/fwo/IDQ60701/IDQ60701.94287.json